Arnett, Oklahoma
Current Conditions -  °F | °C
As of 2:53 PM on Wednesday 26 Nov 2014 (Local Time) from KGAG Reporting Station
Clear Clear  
Wind Chill: 11°   Ceiling: Unl
Heat Index: 11°   Visibility: 10mi
Dew Point: -8°   Wind: 17mph
Humidity: 26%   Direction: 340°NNW
Pressure: 30.26"   Gusts: 28mph
Location:  36.14°N, 99.77°W
Report Text: KGAG 262053Z AUTO 34015G24KT 10SM CLR 11/M08 A3026 RMK AO2 SLP250 T01111078 53006
Loading
Personal Weather Stations






























Interactive Weather Map New forecast layout! Learn more

10-Day Weather Forecast

Advertisements
Track Severe Weather on mobile